Time;durP1;ratioP1;P1;durP2;ratioP2;P2;SDS_P1;SDS_P2;PMS_P1;PMS_P2;Temp;Humidity;BMP_temperature;BMP_pressure;BME280_temperature;BME280_humidity;BME280_pressure;Samples;Min_cycle;Max_cycle;Signal;HPM_P1;HPM_P2
2022/06/24 00:00:07;;;;;;;9.57;8.97;;;21.50;53.50;;;;;;5069957;28;20926;-52
2022/06/24 00:02:33;;;;;;;10.03;9.30;;;21.40;53.20;;;;;;5071609;28;20907;-56
2022/06/24 00:05:01;;;;;;;9.73;8.90;;;21.40;53.40;;;;;;5070221;28;20433;-55
2022/06/24 00:07:27;;;;;;;9.33;8.73;;;21.40;53.60;;;;;;5071232;28;20491;-51
2022/06/24 00:09:52;;;;;;;9.53;8.87;;;21.30;54.00;;;;;;5058007;28;20525;-52
2022/06/24 00:12:20;;;;;;;9.03;8.43;;;21.30;54.20;;;;;;5087503;28;20187;-50
2022/06/24 00:14:59;;;;;;;9.00;8.40;;;21.30;54.40;;;;;;5070383;28;20558;-52
2022/06/24 00:17:30;;;;;;;9.57;8.97;;;21.20;54.60;;;;;;5070231;28;20412;-53
2022/06/24 00:19:57;;;;;;;9.47;8.87;;;21.30;55.00;;;;;;5070253;28;20478;-53
2022/06/24 00:22:24;;;;;;;9.30;8.70;;;21.20;55.10;;;;;;5070490;28;21267;-53
2022/06/24 00:25:15;;;;;;;9.40;8.67;;;21.20;55.40;;;;;;5070117;28;20474;-53
2022/06/24 00:27:42;;;;;;;9.60;9.00;;;21.20;55.40;;;;;;5057236;28;20427;-53
2022/06/24 00:30:13;;;;;;;9.47;8.87;;;21.10;55.80;;;;;;5068503;28;22306;-54
2022/06/24 00:32:39;;;;;;;9.47;8.97;;;21.20;56.40;;;;;;5069640;28;20436;-52
2022/06/24 00:35:35;;;;;;;9.40;8.80;;;21.10;55.90;;;;;;5071939;28;20450;-52
2022/06/24 00:38:00;;;;;;;8.80;8.20;;;21.10;56.10;;;;;;5071046;28;21173;-55
2022/06/24 00:40:29;;;;;;;9.50;8.90;;;21.10;56.20;;;;;;5070367;28;20460;-53
2022/06/24 00:42:55;;;;;;;10.07;9.37;;;21.10;56.50;;;;;;5069848;28;20657;-54
2022/06/24 00:45:45;;;;;;;10.00;9.13;;;21.10;56.60;;;;;;5070635;28;20424;-53
2022/06/24 00:48:15;;;;;;;8.90;8.40;;;21.00;56.70;;;;;;5077065;28;20899;-54
2022/06/24 00:50:46;;;;;;;9.07;8.57;;;21.10;56.60;;;;;;5070541;28;20474;-50
2022/06/24 00:53:13;;;;;;;9.73;9.13;;;21.10;56.80;;;;;;5070504;28;20430;-53
2022/06/24 00:55:41;;;;;;;9.37;8.67;;;21.10;57.00;;;;;;5070411;28;20431;-53
2022/06/24 00:58:14;;;;;;;9.50;8.90;;;21.10;57.30;;;;;;5069574;28;20428;-53
2022/06/24 01:00:46;;;;;;;8.40;7.90;;;21.10;57.30;;;;;;5070286;28;20459;-53
2022/06/24 01:03:14;;;;;;;9.00;8.33;;;21.00;57.60;;;;;;5069334;28;20448;-53
2022/06/24 01:05:40;;;;;;;9.27;8.57;;;21.00;57.80;;;;;;5070084;28;20432;-54
2022/06/24 01:08:11;;;;;;;9.63;9.03;;;21.00;58.00;;;;;;5069470;28;20444;-54
2022/06/24 01:10:38;;;;;;;9.20;8.60;;;20.90;58.10;;;;;;5070379;28;20802;-52
2022/06/24 01:13:08;;;;;;;10.03;9.33;;;21.00;58.20;;;;;;5078150;28;20450;-54
2022/06/24 01:15:33;;;;;;;9.17;8.67;;;21.00;58.20;;;;;;5067509;28;20441;-53
2022/06/24 01:17:59;;;;;;;9.23;8.67;;;20.90;58.20;;;;;;5067491;28;20450;-55
2022/06/24 01:20:25;;;;;;;9.77;9.10;;;20.90;58.20;;;;;;5069777;28;20606;-51
2022/06/24 01:22:50;;;;;;;9.40;8.80;;;20.90;58.10;;;;;;5068457;28;20213;-53
2022/06/24 01:25:16;;;;;;;9.67;9.07;;;20.90;58.30;;;;;;5057109;28;20183;-52
2022/06/24 01:27:41;;;;;;;9.60;9.00;;;20.90;58.50;;;;;;5068600;28;20197;-53
2022/06/24 01:30:10;;;;;;;9.80;9.20;;;20.90;58.50;;;;;;5070117;28;20186;-51
2022/06/24 01:32:35;;;;;;;8.93;8.40;;;20.90;58.90;;;;;;5068881;28;20533;-53
2022/06/24 01:35:01;;;;;;;9.73;8.90;;;20.90;58.50;;;;;;5070138;28;20412;-56
2022/06/24 01:37:27;;;;;;;8.50;8.00;;;20.90;58.60;;;;;;5067930;28;20240;-55
2022/06/24 01:39:52;;;;;;;9.20;8.60;;;20.80;58.90;;;;;;5068867;28;20432;-54
2022/06/24 01:42:18;;;;;;;9.53;9.00;;;20.80;58.90;;;;;;5072978;28;20278;-53
2022/06/24 01:44:44;;;;;;;8.70;8.10;;;20.80;59.00;;;;;;5070360;28;20192;-55
2022/06/24 01:47:09;;;;;;;9.43;8.83;;;20.80;59.00;;;;;;5078399;28;20193;-50
2022/06/24 01:49:35;;;;;;;10.10;9.30;;;20.80;59.00;;;;;;5068665;28;20182;-50
2022/06/24 01:52:01;;;;;;;9.67;9.07;;;20.80;59.20;;;;;;5069421;28;20166;-53
2022/06/24 01:54:27;;;;;;;9.23;8.60;;;20.70;59.40;;;;;;5067922;28;20443;-52
2022/06/24 01:56:54;;;;;;;9.27;8.77;;;20.70;59.40;;;;;;5069531;28;20213;-52
2022/06/24 01:59:20;;;;;;;9.10;8.60;;;20.70;59.60;;;;;;5070659;28;20478;-54
2022/06/24 02:01:46;;;;;;;9.80;9.20;;;20.60;60.00;;;;;;5089596;28;20466;-54
2022/06/24 02:04:13;;;;;;;9.20;8.60;;;20.50;60.50;;;;;;5084751;28;20431;-54
2022/06/24 02:06:39;;;;;;;9.10;8.50;;;20.50;61.20;;;;;;5069668;28;20405;-52
2022/06/24 02:09:05;;;;;;;9.80;9.03;;;20.50;61.40;;;;;;5068346;28;20428;-54
2022/06/24 02:14:16;;;;;;;9.20;8.70;;;20.50;61.80;;;;;;5068586;28;20490;-55
2022/06/24 02:16:42;;;;;;;9.50;8.90;;;20.40;62.40;;;;;;5069209;28;20432;-53
2022/06/24 02:19:08;;;;;;;9.53;9.03;;;20.30;62.90;;;;;;5073837;28;20514;-50
2022/06/24 02:21:35;;;;;;;9.43;8.83;;;20.30;63.30;;;;;;5069131;28;20201;-52
2022/06/24 02:24:01;;;;;;;9.50;8.90;;;20.30;63.40;;;;;;5068853;28;20775;-52
2022/06/24 02:26:27;;;;;;;9.40;8.90;;;20.20;63.50;;;;;;5068323;28;20432;-51
2022/06/24 02:28:53;;;;;;;11.20;10.40;;;20.20;64.00;;;;;;5069084;28;20632;-53
2022/06/24 02:31:20;;;;;;;9.60;9.00;;;20.20;64.40;;;;;;5068362;28;20443;-50
2022/06/24 02:33:46;;;;;;;9.40;8.80;;;20.10;64.80;;;;;;5068366;28;20420;-50
2022/06/24 02:36:12;;;;;;;9.63;9.03;;;20.10;65.20;;;;;;5068081;28;20449;-55
2022/06/24 02:38:38;;;;;;;9.90;9.30;;;20.10;65.50;;;;;;5069078;28;20781;-53
2022/06/24 02:41:03;;;;;;;9.60;9.10;;;20.10;66.10;;;;;;5078686;28;20983;-49
2022/06/24 02:43:32;;;;;;;9.90;9.30;;;20.00;66.90;;;;;;5087370;28;20176;-53
2022/06/24 02:46:06;;;;;;;10.10;9.40;;;20.00;67.40;;;;;;5064212;28;20267;-53
2022/06/24 02:48:34;;;;;;;9.37;8.77;;;20.00;68.00;;;;;;5072719;28;20411;-52
2022/06/24 02:51:02;;;;;;;10.33;9.63;;;19.90;68.20;;;;;;5071983;28;20435;-56
2022/06/24 02:53:29;;;;;;;9.70;9.03;;;19.90;68.80;;;;;;5072915;28;20768;-50
2022/06/24 02:55:59;;;;;;;9.73;9.13;;;19.90;69.40;;;;;;5072130;28;20815;-55
2022/06/24 02:58:26;;;;;;;8.93;8.43;;;19.80;70.40;;;;;;5072467;28;20616;-56
2022/06/24 03:00:52;;;;;;;9.70;9.10;;;19.80;71.20;;;;;;5070739;28;20463;-55
2022/06/24 03:03:19;;;;;;;9.60;9.00;;;19.80;72.50;;;;;;5072635;28;20427;-51
2022/06/24 03:05:46;;;;;;;10.00;9.30;;;19.70;73.10;;;;;;5074982;28;20949;-54
2022/06/24 03:08:13;;;;;;;10.70;10.00;;;19.60;74.00;;;;;;5072445;28;20985;-54
2022/06/24 03:10:39;;;;;;;10.10;9.40;;;19.70;74.80;;;;;;5071258;28;20455;-52
2022/06/24 03:13:05;;;;;;;10.17;9.53;;;19.60;75.20;;;;;;5075678;28;20473;-52
2022/06/24 03:15:31;;;;;;;15.60;9.10;;;19.60;75.40;;;;;;5057760;28;20910;-53
2022/06/24 03:17:57;;;;;;;9.57;8.97;;;19.70;76.10;;;;;;5072144;28;20439;-52
2022/06/24 03:20:23;;;;;;;9.70;9.10;;;19.60;76.30;;;;;;5057557;28;20459;-52
2022/06/24 03:22:49;;;;;;;9.73;9.13;;;19.60;76.90;;;;;;5072222;28;20425;-54
2022/06/24 03:25:14;;;;;;;10.20;9.50;;;19.60;77.40;;;;;;5071933;28;20189;-56
2022/06/24 03:27:40;;;;;;;9.63;9.03;;;19.60;77.40;;;;;;5081881;28;20682;-54
2022/06/24 03:30:08;;;;;;;10.00;9.30;;;19.70;77.50;;;;;;5080870;28;20197;-52
2022/06/24 03:32:34;;;;;;;10.17;9.37;;;19.70;77.20;;;;;;5071136;28;20268;-55
2022/06/24 03:35:00;;;;;;;9.60;9.00;;;19.70;77.50;;;;;;5071214;28;20970;-54
2022/06/24 03:37:26;;;;;;;8.93;8.43;;;19.70;77.50;;;;;;5070708;28;20439;-55
2022/06/24 03:39:52;;;;;;;9.77;9.17;;;19.70;77.80;;;;;;5071979;28;20902;-55
2022/06/24 03:42:17;;;;;;;9.57;8.87;;;19.70;77.90;;;;;;5070543;28;20589;-55
2022/06/24 03:44:43;;;;;;;9.40;8.80;;;19.80;77.40;;;;;;5071667;28;20190;-53
2022/06/24 03:47:09;;;;;;;9.13;8.63;;;19.80;77.10;;;;;;5071070;28;20185;-54
2022/06/24 03:49:34;;;;;;;9.20;8.60;;;19.90;77.00;;;;;;5082733;28;20194;-51
2022/06/24 03:52:00;;;;;;;9.50;8.90;;;19.90;77.10;;;;;;5070405;28;20185;-52
2022/06/24 03:54:26;;;;;;;10.60;9.57;;;19.90;76.60;;;;;;5071825;28;20297;-54
2022/06/24 03:56:51;;;;;;;9.93;9.23;;;20.00;75.90;;;;;;5070893;28;20193;-53
2022/06/24 03:59:17;;;;;;;10.23;9.43;;;20.00;75.00;;;;;;5052933;28;20316;-53
2022/06/24 04:01:43;;;;;;;9.40;8.60;;;20.10;74.90;;;;;;5070707;28;20569;-56
2022/06/24 04:04:09;;;;;;;9.87;9.17;;;20.10;74.60;;;;;;5071630;28;20424;-51
2022/06/24 04:06:35;;;;;;;8.97;8.37;;;20.10;74.20;;;;;;5070926;28;20260;-53
2022/06/24 04:09:01;;;;;;;9.60;8.90;;;20.10;73.70;;;;;;5071124;28;20515;-52
2022/06/24 04:11:26;;;;;;;10.13;9.30;;;20.10;74.40;;;;;;5075611;28;20190;-50
2022/06/24 04:13:52;;;;;;;10.00;9.30;;;20.10;74.40;;;;;;5083449;28;20559;-52
2022/06/24 04:16:17;;;;;;;9.73;9.13;;;20.10;75.10;;;;;;5070681;28;20182;-54
2022/06/24 04:18:43;;;;;;;9.50;8.80;;;20.10;75.50;;;;;;5071241;28;20229;-55
2022/06/24 04:21:13;;;;;;;9.93;9.23;;;20.00;75.80;;;;;;5070529;28;20201;-52
2022/06/24 04:23:39;;;;;;;9.83;9.23;;;20.00;76.40;;;;;;5070183;28;20190;-49
2022/06/24 04:26:06;;;;;;;9.97;9.17;;;20.00;76.70;;;;;;5071226;28;20768;-52
2022/06/24 04:28:32;;;;;;;9.73;8.90;;;20.00;77.10;;;;;;5069559;28;20440;-50
2022/06/24 04:30:57;;;;;;;9.40;8.80;;;20.00;77.60;;;;;;5053024;28;20431;-54
2022/06/24 04:33:23;;;;;;;9.13;8.43;;;20.10;77.60;;;;;;5069504;28;20431;-54
2022/06/24 04:35:48;;;;;;;9.30;8.70;;;20.10;77.20;;;;;;5070181;28;20185;-48
2022/06/24 04:38:14;;;;;;;10.87;10.10;;;20.10;77.00;;;;;;5048835;28;20194;-52
2022/06/24 04:40:40;;;;;;;9.67;8.90;;;20.20;77.10;;;;;;5080579;28;20260;-52
2022/06/24 04:43:06;;;;;;;10.87;9.50;;;20.30;76.70;;;;;;5069142;28;20178;-54
2022/06/24 04:45:31;;;;;;;9.40;8.70;;;20.30;76.10;;;;;;5070893;28;20196;-54
2022/06/24 04:47:57;;;;;;;9.63;9.03;;;20.30;75.80;;;;;;5070942;28;20185;-55
2022/06/24 04:50:23;;;;;;;9.80;9.00;;;20.40;75.70;;;;;;5069870;28;20443;-53
2022/06/24 04:52:48;;;;;;;9.83;9.07;;;20.40;75.00;;;;;;5070777;28;20189;-53
2022/06/24 04:55:14;;;;;;;11.00;9.90;;;20.50;74.90;;;;;;5070080;28;20202;-54
2022/06/24 04:57:40;;;;;;;10.73;9.93;;;20.50;74.70;;;;;;5070058;28;20189;-52
2022/06/24 05:00:09;;;;;;;10.20;9.60;;;20.60;74.40;;;;;;5068379;28;20241;-53
2022/06/24 05:02:34;;;;;;;10.40;9.70;;;20.70;74.20;;;;;;5057456;28;20549;-55
2022/06/24 05:05:00;;;;;;;10.47;9.77;;;20.70;73.60;;;;;;5070035;28;20424;-50
2022/06/24 05:07:25;;;;;;;11.07;10.37;;;20.80;73.50;;;;;;5069185;28;20180;-54
2022/06/24 05:09:51;;;;;;;10.83;10.03;;;20.90;72.70;;;;;;5070217;28;20194;-49
2022/06/24 05:12:17;;;;;;;9.90;9.00;;;21.00;72.30;;;;;;5069936;28;20190;-51
2022/06/24 05:14:42;;;;;;;10.57;9.57;;;21.00;71.70;;;;;;5067634;28;20187;-52
2022/06/24 05:17:08;;;;;;;11.30;10.30;;;21.10;71.30;;;;;;5047714;28;20313;-55
2022/06/24 05:19:33;;;;;;;11.27;10.37;;;21.20;71.00;;;;;;5042952;28;20242;-54
2022/06/24 05:21:59;;;;;;;11.57;10.77;;;21.20;70.80;;;;;;5057783;28;20238;-56
2022/06/24 05:24:24;;;;;;;11.57;10.70;;;21.30;70.10;;;;;;5061086;28;20742;-54
2022/06/24 05:26:50;;;;;;;10.67;9.97;;;21.30;69.70;;;;;;5056298;28;20187;-54
2022/06/24 05:29:16;;;;;;;10.50;9.87;;;21.40;69.80;;;;;;5042898;28;20226;-52
2022/06/24 05:31:42;;;;;;;11.17;10.37;;;21.40;69.00;;;;;;5041978;28;20206;-52
2022/06/24 05:34:08;;;;;;;10.77;10.00;;;21.50;68.70;;;;;;5054286;28;20226;-54
2022/06/24 05:36:34;;;;;;;11.60;10.90;;;21.50;67.50;;;;;;5044568;28;20531;-54
2022/06/24 05:39:05;;;;;;;10.57;9.97;;;21.60;67.20;;;;;;5057905;28;20237;-51
2022/06/24 05:41:31;;;;;;;10.67;10.00;;;21.70;67.30;;;;;;5060531;28;20895;-54
2022/06/24 05:43:56;;;;;;;11.00;10.30;;;21.70;66.50;;;;;;5059606;28;20476;-52
2022/06/24 05:46:22;;;;;;;11.17;10.50;;;21.80;66.90;;;;;;5059213;28;20913;-54
2022/06/24 05:48:47;;;;;;;9.93;9.33;;;21.80;66.90;;;;;;5051318;28;21953;-52
2022/06/24 05:51:18;;;;;;;11.50;10.70;;;21.90;66.70;;;;;;5069165;28;20270;-51
2022/06/24 05:56:30;;;;;;;10.57;9.70;;;22.10;65.40;;;;;;5069777;28;20483;-52
2022/06/24 05:58:57;;;;;;;10.30;9.60;;;22.10;64.20;;;;;;5068353;28;20478;-52
2022/06/24 06:01:23;;;;;;;10.90;10.20;;;22.20;64.20;;;;;;5069320;28;20481;-51
2022/06/24 06:03:49;;;;;;;11.20;10.37;;;22.30;64.20;;;;;;5068505;28;20434;-53
2022/06/24 06:06:15;;;;;;;10.83;10.13;;;22.40;63.60;;;;;;5069506;28;21096;-54
2022/06/24 06:08:41;;;;;;;9.93;9.30;;;22.50;63.00;;;;;;5069326;28;20634;-56
2022/06/24 06:11:25;;;;;;;9.83;9.23;;;22.50;62.10;;;;;;5062051;28;20576;-56
2022/06/24 06:13:53;;;;;;;10.70;10.00;;;22.60;62.20;;;;;;5077493;28;20238;-53
2022/06/24 06:16:19;;;;;;;10.10;9.33;;;22.60;61.80;;;;;;5068625;28;20422;-54
2022/06/24 06:18:45;;;;;;;11.70;10.70;;;22.70;60.80;;;;;;5068145;28;20816;-53
2022/06/24 06:21:12;;;;;;;11.10;10.40;;;22.80;60.30;;;;;;5073733;28;20209;-52
2022/06/24 06:23:39;;;;;;;10.83;10.00;;;22.80;59.80;;;;;;5068099;28;20502;-53
2022/06/24 06:26:06;;;;;;;10.40;9.60;;;22.90;59.70;;;;;;5070364;28;20438;-51
2022/06/24 06:28:32;;;;;;;10.80;10.10;;;23.00;59.50;;;;;;5075244;28;20422;-53
2022/06/24 06:30:58;;;;;;;10.20;9.50;;;23.00;59.00;;;;;;5067189;28;20784;-52
2022/06/24 06:33:25;;;;;;;10.70;10.00;;;23.10;59.60;;;;;;5068874;28;20442;-50
2022/06/24 06:35:50;;;;;;;9.90;9.20;;;23.20;59.00;;;;;;5067923;28;20937;-49
2022/06/24 06:38:16;;;;;;;10.67;9.97;;;23.20;58.50;;;;;;5064218;28;20435;-54
2022/06/24 06:40:42;;;;;;;10.30;9.47;;;23.40;58.50;;;;;;5065478;28;20216;-52
2022/06/24 06:43:09;;;;;;;10.18;9.18;;;23.50;57.90;;;;;;5071352;28;20428;-52
2022/06/24 06:45:36;;;;;;;10.60;9.70;;;23.50;57.80;;;;;;5070470;28;20185;-52
2022/06/24 06:48:02;;;;;;;10.90;10.10;;;23.60;57.40;;;;;;5067798;28;20510;-53
2022/06/24 06:50:28;;;;;;;10.50;9.70;;;23.70;57.10;;;;;;5066838;28;20480;-51
2022/06/24 06:52:54;;;;;;;10.23;9.43;;;23.80;57.20;;;;;;5068536;28;20419;-55
2022/06/24 06:55:20;;;;;;;9.40;8.80;;;23.80;56.30;;;;;;5066540;28;20194;-53
2022/06/24 06:57:46;;;;;;;10.77;10.07;;;23.80;55.90;;;;;;5072584;28;20994;-51
2022/06/24 07:00:13;;;;;;;8.97;8.37;;;24.00;56.30;;;;;;5068541;28;20882;-52
2022/06/24 07:02:39;;;;;;;8.90;8.30;;;24.00;55.60;;;;;;5066080;28;20454;-52
2022/06/24 07:05:06;;;;;;;10.30;9.67;;;24.20;55.60;;;;;;5067641;28;20428;-55
2022/06/24 07:07:31;;;;;;;9.97;9.23;;;24.30;54.90;;;;;;5066456;28;20439;-52
2022/06/24 07:09:57;;;;;;;9.27;8.60;;;24.30;54.70;;;;;;5068023;28;20902;-53
2022/06/24 07:12:24;;;;;;;9.33;8.83;;;24.40;54.50;;;;;;5067400;28;20182;-48
2022/06/24 07:14:49;;;;;;;10.00;9.33;;;24.50;53.80;;;;;;5067926;28;20505;-52
2022/06/24 07:17:16;;;;;;;9.90;9.27;;;24.50;53.40;;;;;;5067284;28;20432;-51
2022/06/24 07:19:42;;;;;;;9.80;9.30;;;24.60;54.30;;;;;;5067811;28;20888;-52
2022/06/24 07:22:08;;;;;;;9.60;9.00;;;24.70;53.20;;;;;;5077986;28;20506;-50
2022/06/24 07:24:34;;;;;;;9.90;9.30;;;24.70;53.00;;;;;;5067700;28;20843;-51
2022/06/24 07:27:08;;;;;;;10.00;9.30;;;24.80;52.90;;;;;;5070208;28;20185;-56
2022/06/24 07:29:35;;;;;;;9.67;8.97;;;24.90;52.20;;;;;;5072035;28;21254;-54
2022/06/24 07:32:02;;;;;;;9.83;9.03;;;25.00;52.20;;;;;;5070827;28;20494;-54
2022/06/24 07:34:30;;;;;;;9.40;8.80;;;25.20;51.00;;;;;;5070616;28;20431;-56
2022/06/24 07:37:01;;;;;;;9.47;8.87;;;25.20;50.40;;;;;;5061435;28;20431;-54
2022/06/24 07:39:27;;;;;;;9.77;9.07;;;25.30;50.30;;;;;;5069078;28;20437;-50
2022/06/24 07:41:53;;;;;;;9.33;8.63;;;25.40;49.70;;;;;;5071168;28;20530;-48
2022/06/24 07:44:19;;;;;;;9.20;8.60;;;25.60;49.30;;;;;;5054342;28;20528;-50
2022/06/24 07:46:46;;;;;;;9.87;9.27;;;25.60;49.60;;;;;;5055885;28;20182;-56
2022/06/24 07:49:11;;;;;;;10.50;9.90;;;25.80;48.40;;;;;;5070329;28;20434;-51
2022/06/24 07:51:37;;;;;;;9.30;8.60;;;25.90;47.90;;;;;;5070859;28;20429;-53
2022/06/24 07:54:05;;;;;;;9.40;8.70;;;26.00;48.60;;;;;;5070582;28;20230;-53
2022/06/24 07:59:16;;;;;;;8.90;8.30;;;26.20;45.70;;;;;;5070369;28;20509;-53
2022/06/24 08:01:42;;;;;;;9.87;9.10;;;26.30;46.10;;;;;;5073470;28;20465;-52
2022/06/24 08:04:07;;;;;;;9.00;8.37;;;26.40;46.10;;;;;;5069707;28;20447;-53
2022/06/24 08:06:35;;;;;;;9.80;9.10;;;26.60;45.70;;;;;;5076597;28;20175;-50
2022/06/24 08:09:02;;;;;;;9.70;8.90;;;26.60;44.30;;;;;;5071194;28;20175;-50
2022/06/24 08:11:28;;;;;;;9.43;8.80;;;26.70;44.40;;;;;;5074643;28;20428;-51
2022/06/24 08:13:54;;;;;;;8.90;8.20;;;26.80;43.00;;;;;;5091232;28;20399;-53
2022/06/24 08:16:21;;;;;;;8.67;8.07;;;27.00;43.70;;;;;;5068054;28;20946;-55
2022/06/24 08:18:47;;;;;;;9.80;9.27;;;27.10;43.40;;;;;;5070622;28;20225;-51
2022/06/24 08:21:12;;;;;;;9.70;9.00;;;27.30;43.80;;;;;;5068859;28;21118;-51
2022/06/24 08:23:38;;;;;;;10.10;9.43;;;27.40;43.60;;;;;;5070599;28;20185;-55
2022/06/24 08:26:05;;;;;;;9.50;8.80;;;27.50;44.20;;;;;;5068901;28;20187;-55
2022/06/24 08:28:30;;;;;;;9.60;8.67;;;27.70;99.90;;;;;;5069822;28;20184;-55
2022/06/24 08:30:56;;;;;;;8.03;7.43;;;27.80;99.90;;;;;;5069377;28;20793;-52
2022/06/24 08:33:22;;;;;;;8.50;8.10;;;27.80;99.90;;;;;;5066660;28;20185;-53
2022/06/24 08:35:48;;;;;;;8.77;8.20;;;27.90;99.90;;;;;;5051034;28;20189;-54
2022/06/24 08:38:17;;;;;;;8.23;7.63;;;28.00;99.90;;;;;;5067217;28;20832;-54
2022/06/24 08:40:46;;;;;;;8.27;7.77;;;28.00;99.90;;;;;;5075731;28;20494;-53
2022/06/24 08:43:13;;;;;;;8.80;8.30;;;28.10;99.90;;;;;;5062359;28;20427;-54
2022/06/24 08:45:38;;;;;;;9.17;8.63;;;28.10;99.90;;;;;;5069416;28;21167;-55
2022/06/24 08:48:08;;;;;;;8.50;7.90;;;28.20;99.90;;;;;;5050975;28;20523;-50
2022/06/24 08:50:34;;;;;;;8.80;8.00;;;28.30;99.90;;;;;;5069102;28;20514;-55
2022/06/24 08:53:04;;;;;;;8.60;8.10;;;28.40;99.90;;;;;;5068226;28;20439;-53
2022/06/24 08:55:36;;;;;;;9.20;8.30;;;28.50;99.90;;;;;;5069425;28;20189;-54
2022/06/24 08:58:06;;;;;;;8.30;7.70;;;28.70;99.90;;;;;;5050408;28;20512;-48
2022/06/24 09:00:31;;;;;;;8.90;8.30;;;28.90;99.90;;;;;;5069856;28;20455;-57
2022/06/24 09:02:57;;;;;;;9.13;8.47;;;29.00;99.90;;;;;;5069165;28;20498;-50
2022/06/24 09:05:26;;;;;;;8.63;8.17;;;29.20;99.90;;;;;;5069373;28;20283;-53
2022/06/24 09:08:02;;;;;;;9.10;8.43;;;29.30;99.90;;;;;;5067083;28;20174;-55
2022/06/24 09:10:28;;;;;;;7.80;7.33;;;29.40;99.90;;;;;;5068501;28;20469;-52
2022/06/24 09:12:54;;;;;;;9.20;8.50;;;29.40;99.90;;;;;;5050562;28;20952;-55
2022/06/24 09:15:21;;;;;;;8.20;7.80;;;29.60;99.90;;;;;;5064893;28;20589;-54
2022/06/24 09:17:47;;;;;;;8.10;7.60;;;29.50;99.90;;;;;;5057814;28;21219;-53
2022/06/24 09:20:17;;;;;;;7.80;7.27;;;29.70;99.90;;;;;;5066374;28;20439;-54
2022/06/24 09:22:44;;;;;;;8.60;8.10;;;29.80;99.90;;;;;;5067780;28;20261;-54
2022/06/24 09:25:09;;;;;;;8.50;7.80;;;29.90;99.90;;;;;;5062799;28;20510;-55
2022/06/24 09:27:41;;;;;;;8.53;7.90;;;29.80;99.90;;;;;;5066440;28;20518;-54
2022/06/24 09:30:07;;;;;;;9.20;8.50;;;29.80;99.90;;;;;;5072996;28;20200;-54
2022/06/24 09:32:33;;;;;;;8.40;7.90;;;29.90;99.90;;;;;;5062766;28;20462;-53
2022/06/24 09:35:07;;;;;;;8.70;8.20;;;30.00;99.90;;;;;;5066520;28;21137;-51
2022/06/24 09:37:36;;;;;;;8.70;8.13;;;30.30;99.90;;;;;;5067318;28;20526;-55
2022/06/24 09:40:29;;;;;;;8.90;8.30;;;30.40;99.90;;;;;;5065912;28;20988;-55
2022/06/24 09:42:58;;;;;;;8.50;7.63;;;30.30;99.90;;;;;;5074260;28;20442;-53
2022/06/24 09:45:25;;;;;;;8.43;7.77;;;30.20;99.90;;;;;;5059590;28;20816;-53
2022/06/24 09:47:51;;;;;;;9.30;8.50;;;30.30;99.90;;;;;;5066824;28;20934;-52
2022/06/24 09:50:18;;;;;;;8.53;8.10;;;30.30;99.90;;;;;;5064723;28;20422;-55
2022/06/24 09:52:44;;;;;;;9.07;8.50;;;30.30;99.90;;;;;;5067466;28;20431;-56
2022/06/24 09:55:10;;;;;;;8.60;7.90;;;30.50;99.90;;;;;;5042491;28;20465;-52
2022/06/24 09:57:38;;;;;;;9.33;8.73;;;30.60;99.90;;;;;;5048979;28;20546;-53
2022/06/24 10:02:50;;;;;;;8.40;7.80;;;30.90;99.90;;;;;;5043442;28;21066;-56
2022/06/24 10:05:18;;;;;;;8.70;8.10;;;31.30;99.90;;;;;;5052347;28;20436;-50
2022/06/24 10:07:46;;;;;;;8.47;7.97;;;31.60;99.90;;;;;;5036808;28;20443;-56
2022/06/24 10:10:14;;;;;;;8.53;8.13;;;32.00;99.90;;;;;;5059257;28;20427;-55
2022/06/24 10:12:46;;;;;;;8.80;8.30;;;32.30;99.90;;;;;;5041573;28;20691;-56
2022/06/24 10:15:14;;;;;;;9.03;8.53;;;32.40;99.90;;;;;;5046547;28;20487;-56
2022/06/24 10:17:42;;;;;;;8.47;7.97;;;32.20;99.90;;;;;;5041876;28;20447;-54
2022/06/24 10:20:11;;;;;;;8.23;7.83;;;32.10;99.90;;;;;;5058720;28;20428;-51
2022/06/24 10:22:45;;;;;;;8.50;8.00;;;32.20;99.90;;;;;;5049800;28;20549;-54
2022/06/24 10:25:15;;;;;;;8.93;8.33;;;32.30;99.90;;;;;;5049969;28;20423;-52
2022/06/24 10:27:59;;;;;;;7.60;7.10;;;32.40;99.90;;;;;;5042665;28;20436;-55
2022/06/24 10:30:39;;;;;;;9.50;9.00;;;32.30;99.90;;;;;;5048592;28;20481;-53
2022/06/24 10:33:15;;;;;;;8.60;8.10;;;32.20;99.90;;;;;;5046886;28;20448;-54
2022/06/24 10:36:00;;;;;;;8.40;7.90;;;32.40;99.90;;;;;;5055723;28;20432;-56
2022/06/24 10:38:33;;;;;;;9.20;8.57;;;32.40;99.90;;;;;;5039863;28;21161;-55
2022/06/24 10:41:01;;;;;;;9.70;8.80;;;32.50;99.90;;;;;;5050389;28;20460;-55
2022/06/24 10:43:41;;;;;;;9.83;9.23;;;32.60;99.90;;;;;;5039955;28;20429;-55
2022/06/24 10:46:13;;;;;;;9.23;8.50;;;32.40;99.90;;;;;;5057927;28;20484;-50
2022/06/24 10:48:50;;;;;;;9.03;8.53;;;32.30;99.90;;;;;;5044200;28;20464;-53
2022/06/24 10:51:21;;;;;;;9.33;8.83;;;31.80;99.90;;;;;;5051442;28;20429;-55
2022/06/24 10:54:01;;;;;;;9.63;9.03;;;31.80;99.90;;;;;;5052965;28;20443;-52
2022/06/24 10:56:46;;;;;;;9.57;9.00;;;31.90;99.90;;;;;;5065558;28;20419;-52
2022/06/24 10:59:13;;;;;;;10.37;9.67;;;31.70;99.90;;;;;;5066659;28;20475;-56
2022/06/24 11:01:44;;;;;;;10.10;9.17;;;31.90;99.90;;;;;;5069275;28;20463;-55
2022/06/24 11:04:19;;;;;;;9.87;9.27;;;31.90;99.90;;;;;;5070445;28;20427;-54
2022/06/24 11:07:11;;;;;;;10.20;9.50;;;31.40;99.90;;;;;;5069460;28;20995;-52
2022/06/24 11:09:37;;;;;;;9.63;9.03;;;31.20;99.90;;;;;;5065926;28;20471;-51
2022/06/24 11:12:05;;;;;;;10.27;9.47;;;31.10;99.90;;;;;;5071493;28;20832;-50
2022/06/24 11:14:31;;;;;;;9.80;9.10;;;31.10;99.90;;;;;;5067813;28;20439;-56
2022/06/24 11:16:56;;;;;;;10.20;9.60;;;31.20;99.90;;;;;;5070433;28;20950;-53
2022/06/24 11:19:22;;;;;;;10.40;9.80;;;31.10;99.90;;;;;;5068617;28;20193;-54
2022/06/24 11:21:51;;;;;;;10.87;10.13;;;31.20;99.90;;;;;;5070811;28;20560;-51
2022/06/24 11:24:19;;;;;;;10.20;9.50;;;30.90;99.90;;;;;;5069832;28;20173;-53
2022/06/24 11:27:07;;;;;;;10.90;10.10;;;31.00;99.90;;;;;;5070685;28;20439;-52
2022/06/24 11:29:52;;;;;;;10.57;9.87;;;31.00;99.90;;;;;;5068890;28;20428;-56
2022/06/24 11:32:18;;;;;;;11.40;10.30;;;31.00;99.90;;;;;;5070266;28;20430;-54
2022/06/24 11:34:44;;;;;;;10.90;10.00;;;30.80;99.90;;;;;;5078411;28;20427;-56
2022/06/24 11:37:11;;;;;;;10.07;9.47;;;30.70;99.90;;;;;;5073908;28;20435;-53
2022/06/24 11:39:37;;;;;;;10.93;10.03;;;30.70;99.90;;;;;;5069132;28;20443;-55
2022/06/24 11:42:03;;;;;;;11.37;10.57;;;30.80;99.90;;;;;;5070176;28;20861;-56
2022/06/24 11:44:36;;;;;;;12.20;10.97;;;30.80;99.90;;;;;;5069135;28;20254;-54
2022/06/24 11:47:03;;;;;;;10.67;9.77;;;30.80;99.90;;;;;;5067219;28;20180;-56
2022/06/24 11:49:34;;;;;;;9.90;9.30;;;30.90;99.90;;;;;;5069081;28;20430;-56
2022/06/24 11:52:01;;;;;;;11.20;10.40;;;31.10;99.90;;;;;;5068171;28;20466;-52
2022/06/24 11:54:29;;;;;;;11.27;10.57;;;31.30;99.90;;;;;;5068409;28;20439;-56
2022/06/24 11:56:55;;;;;;;10.30;9.70;;;31.70;99.90;;;;;;5069679;28;20525;-53
2022/06/24 11:59:22;;;;;;;10.67;9.97;;;31.80;99.90;;;;;;5051287;28;20469;-53
2022/06/24 12:01:49;;;;;;;10.17;9.40;;;31.80;99.90;;;;;;5042885;28;20471;-55
2022/06/24 12:04:15;;;;;;;10.80;9.70;;;31.70;99.90;;;;;;5037015;28;20417;-55
2022/06/24 12:06:42;;;;;;;11.30;10.40;;;31.50;99.90;;;;;;5039097;28;20448;-52
2022/06/24 12:09:10;;;;;;;10.73;10.03;;;31.60;99.90;;;;;;5042655;28;20428;-56
2022/06/24 12:11:40;;;;;;;10.07;9.43;;;31.90;99.90;;;;;;5050754;28;20783;-56
2022/06/24 12:14:08;;;;;;;9.77;9.17;;;32.10;99.90;;;;;;5049775;28;20431;-51
2022/06/24 12:16:56;;;;;;;9.60;9.10;;;32.20;99.90;;;;;;5036978;28;20441;-56
2022/06/24 12:19:22;;;;;;;10.60;9.70;;;32.10;99.90;;;;;;5044267;28;20421;-54
2022/06/24 12:21:47;;;;;;;10.93;10.33;;;32.20;99.90;;;;;;5037970;28;20510;-55
2022/06/24 12:24:24;;;;;;;10.67;9.87;;;32.30;99.90;;;;;;5044890;28;20265;-51
2022/06/24 12:26:54;;;;;;;11.27;10.40;;;32.00;99.90;;;;;;5031364;28;20213;-55
2022/06/24 12:29:30;;;;;;;10.67;9.97;;;32.20;99.90;;;;;;5049692;28;20424;-49
2022/06/24 12:31:56;;;;;;;10.97;10.27;;;32.00;99.90;;;;;;5048843;28;20432;-55
2022/06/24 12:34:37;;;;;;;9.90;9.00;;;31.50;99.90;;;;;;5039653;28;20440;-54
2022/06/24 12:37:08;;;;;;;10.13;9.43;;;31.30;99.90;;;;;;5034452;28;20952;-56
2022/06/24 12:39:36;;;;;;;10.73;9.67;;;31.10;99.90;;;;;;5049989;28;20416;-52
2022/06/24 12:42:03;;;;;;;10.50;9.80;;;30.80;99.90;;;;;;5039836;28;20487;-54
2022/06/24 12:44:51;;;;;;;9.63;9.10;;;30.70;99.90;;;;;;5050142;28;20439;-55
2022/06/24 12:52:58;;;;;;;10.03;9.33;;;29.10;99.90;;;;;;5047814;28;20455;-57
2022/06/24 12:55:23;;;;;;;10.63;9.93;;;29.10;99.90;;;;;;5046189;28;20444;-52
2022/06/24 12:57:49;;;;;;;11.17;10.30;;;29.00;99.90;;;;;;5046017;28;20473;-55
2022/06/24 13:00:16;;;;;;;10.40;9.77;;;28.80;99.90;;;;;;5067263;28;20244;-52
2022/06/24 13:02:45;;;;;;;9.97;9.17;;;28.90;99.90;;;;;;5068814;28;20616;-53